createdAt,value
2022-12-23T00:00:42.565Z,6.51
2022-12-23T00:03:09.304Z,6.45
2022-12-23T00:05:38.155Z,6.39
2022-12-23T00:08:06.598Z,6.42
2022-12-23T00:10:34.071Z,6.45
2022-12-23T00:13:21.187Z,6.50
2022-12-23T00:15:47.576Z,6.55
2022-12-23T00:18:14.092Z,6.73
2022-12-23T00:20:40.501Z,6.77
2022-12-23T00:23:07.050Z,6.57
2022-12-23T00:25:41.719Z,6.78
2022-12-23T00:28:12.625Z,7.00
2022-12-23T00:30:50.564Z,6.97
2022-12-23T00:33:22.320Z,6.84
2022-12-23T00:35:49.529Z,6.97
2022-12-23T00:38:17.337Z,6.93
2022-12-23T00:41:02.597Z,6.92
2022-12-23T00:43:29.011Z,7.02
2022-12-23T00:45:55.490Z,7.10
2022-12-23T00:48:40.601Z,7.10
2022-12-23T00:51:06.989Z,6.95
2022-12-23T00:53:49.717Z,7.01
2022-12-23T00:56:16.166Z,6.97
2022-12-23T00:58:42.563Z,6.97
2022-12-23T01:01:27.577Z,7.05
2022-12-23T01:04:14.881Z,7.00
2022-12-23T01:06:41.267Z,6.99
2022-12-23T01:09:07.680Z,7.01
2022-12-23T01:11:34.163Z,7.07
2022-12-23T01:14:00.580Z,7.08
2022-12-23T01:16:27.089Z,7.18
2022-12-23T01:18:53.527Z,7.07
2022-12-23T01:21:19.913Z,7.30
2022-12-23T01:23:46.443Z,7.33
2022-12-23T01:26:12.986Z,7.47
2022-12-23T01:28:39.395Z,7.50
2022-12-23T01:31:09.549Z,7.57
2022-12-23T01:33:36.083Z,7.56
2022-12-23T01:36:04.770Z,7.57
2022-12-23T01:38:31.350Z,7.38
2022-12-23T01:40:58.793Z,7.53
2022-12-23T01:43:45.554Z,7.28
2022-12-23T01:46:12.044Z,7.38
2022-12-23T01:48:39.905Z,7.29
2022-12-23T01:51:12.109Z,7.50
2022-12-23T01:53:43.507Z,7.27
2022-12-23T01:56:26.428Z,7.40
2022-12-23T01:59:51.325Z,7.44
2022-12-23T02:02:36.237Z,7.37
2022-12-23T02:05:03.050Z,7.35
2022-12-23T02:07:48.093Z,7.36
2022-12-23T02:10:14.499Z,7.38
2022-12-23T02:14:00.207Z,7.50
2022-12-23T02:16:28.661Z,7.28
2022-12-23T02:19:18.702Z,7.42
2022-12-23T02:22:13.881Z,7.35
2022-12-23T02:25:02.431Z,7.40
2022-12-23T02:27:32.610Z,7.60
2022-12-23T02:30:38.619Z,7.84
2022-12-23T02:33:17.345Z,7.76
2022-12-23T02:35:58.161Z,7.67
2022-12-23T02:38:43.533Z,7.70
2022-12-23T02:41:36.191Z,7.75
2022-12-23T02:44:13.530Z,7.61
2022-12-23T02:46:50.179Z,7.46
2022-12-23T02:49:40.118Z,7.53
2022-12-23T02:52:13.640Z,7.54
2022-12-23T02:54:48.574Z,7.82
2022-12-23T02:57:21.064Z,7.49
2022-12-23T02:59:51.521Z,7.79
2022-12-23T03:02:18.878Z,7.86
2022-12-23T03:04:45.466Z,7.91
2022-12-23T03:07:30.019Z,8.01
2022-12-23T03:10:04.985Z,8.13
2022-12-23T03:12:50.441Z,7.94
2022-12-23T03:15:38.571Z,8.19
2022-12-23T03:18:28.669Z,8.20
2022-12-23T03:21:02.291Z,8.07
2022-12-23T03:23:34.412Z,7.93
2022-12-23T03:26:11.991Z,7.98
2022-12-23T03:28:51.454Z,8.06
2022-12-23T03:31:24.608Z,7.82
2022-12-23T03:33:57.911Z,7.89
2022-12-23T03:36:34.460Z,7.92
2022-12-23T03:39:04.426Z,7.97
2022-12-23T03:41:35.717Z,8.27
2022-12-23T03:44:21.016Z,8.11
2022-12-23T03:46:54.309Z,8.02
2022-12-23T03:49:31.238Z,8.21
2022-12-23T03:52:04.092Z,8.52
2022-12-23T03:54:39.212Z,8.32
2022-12-23T03:57:08.240Z,8.35
2022-12-23T03:59:39.003Z,8.11
2022-12-23T04:02:30.449Z,8.40
2022-12-23T04:05:13.879Z,8.54
2022-12-23T04:07:46.111Z,8.22
2022-12-23T04:10:13.629Z,8.40
2022-12-23T04:12:40.385Z,8.40
2022-12-23T04:15:12.479Z,8.37
2022-12-23T04:17:39.635Z,8.31
2022-12-23T04:20:15.653Z,8.57
2022-12-23T04:22:43.481Z,8.57
2022-12-23T04:25:14.568Z,8.62
2022-12-23T04:27:41.443Z,8.85
2022-12-23T04:30:10.680Z,8.71
2022-12-23T04:32:37.277Z,8.73
2022-12-23T04:35:04.541Z,8.73
2022-12-23T04:37:30.997Z,8.62
2022-12-23T04:39:57.484Z,8.65
2022-12-23T04:42:23.926Z,8.82
2022-12-23T04:44:50.361Z,9.02
2022-12-23T04:47:16.823Z,8.85
2022-12-23T04:49:43.234Z,8.92
2022-12-23T04:52:09.712Z,8.65
2022-12-23T04:54:39.319Z,8.87
2022-12-23T04:57:10.648Z,9.04
2022-12-23T04:59:39.182Z,8.78
2022-12-23T05:02:05.751Z,8.94
2022-12-23T05:04:32.340Z,8.77
2022-12-23T05:06:58.766Z,8.84
2022-12-23T05:09:25.183Z,8.92
2022-12-23T05:11:54.627Z,8.88
2022-12-23T05:14:21.054Z,8.79
2022-12-23T05:16:47.503Z,8.69
2022-12-23T05:19:14.006Z,8.56
2022-12-23T05:21:40.401Z,8.67
2022-12-23T05:24:06.944Z,8.76
2022-12-23T05:26:33.317Z,8.66
2022-12-23T05:28:59.693Z,8.71
2022-12-23T05:31:28.289Z,8.87
2022-12-23T05:33:54.944Z,8.64
2022-12-23T05:36:22.374Z,8.81
2022-12-23T05:38:48.811Z,8.80
2022-12-23T05:41:16.855Z,8.97
2022-12-23T05:43:43.252Z,8.91
2022-12-23T05:46:09.818Z,8.92
2022-12-23T05:48:44.289Z,8.99
2022-12-23T05:51:10.743Z,8.90
2022-12-23T05:53:37.230Z,9.03
2022-12-23T05:56:05.836Z,9.14
2022-12-23T05:58:32.444Z,9.17
2022-12-23T06:00:58.841Z,9.08
2022-12-23T06:03:25.623Z,9.22
2022-12-23T06:05:52.498Z,9.32
2022-12-23T06:08:23.107Z,9.25
2022-12-23T06:10:49.531Z,9.15
2022-12-23T06:13:16.226Z,9.00
2022-12-23T06:15:43.071Z,9.03
2022-12-23T06:18:09.471Z,8.88
2022-12-23T06:20:35.916Z,8.88
2022-12-23T06:23:02.331Z,8.95
2022-12-23T06:25:29.082Z,9.04
2022-12-23T06:27:55.479Z,9.26
2022-12-23T06:30:21.867Z,9.25
2022-12-23T06:32:48.257Z,9.01
2022-12-23T06:35:14.684Z,8.92
2022-12-23T06:37:41.073Z,9.00
2022-12-23T06:40:08.050Z,8.94
2022-12-23T06:42:34.490Z,9.09
2022-12-23T06:45:00.922Z,9.12
2022-12-23T06:47:27.343Z,9.25
2022-12-23T06:49:54.836Z,9.15
2022-12-23T06:52:22.945Z,9.18
2022-12-23T06:54:49.435Z,9.24
2022-12-23T06:57:15.826Z,9.28
2022-12-23T06:59:42.230Z,9.13
2022-12-23T07:02:11.788Z,9.25
2022-12-23T07:04:38.408Z,9.16
2022-12-23T07:07:04.814Z,9.38
2022-12-23T07:09:31.241Z,9.48
2022-12-23T07:12:06.931Z,9.51
2022-12-23T07:14:33.372Z,9.34
2022-12-23T07:16:59.828Z,9.33
2022-12-23T07:19:26.360Z,9.26
2022-12-23T07:21:52.749Z,9.45
2022-12-23T07:24:19.186Z,9.34
2022-12-23T07:26:45.570Z,9.50
2022-12-23T07:29:11.962Z,9.34
2022-12-23T07:31:41.083Z,9.48
2022-12-23T07:34:08.009Z,9.30
2022-12-23T07:36:34.415Z,9.19
2022-12-23T07:39:00.995Z,9.37
2022-12-23T07:41:27.474Z,9.53
2022-12-23T07:43:53.859Z,9.87
2022-12-23T07:46:20.315Z,9.82
2022-12-23T07:48:46.860Z,9.55
2022-12-23T07:51:13.454Z,9.48
2022-12-23T07:53:39.949Z,9.42
2022-12-23T07:56:06.681Z,9.55
2022-12-23T07:58:33.088Z,9.70
2022-12-23T08:01:05.207Z,9.75
2022-12-23T08:03:31.871Z,9.83
2022-12-23T08:06:02.864Z,9.94
2022-12-23T08:08:29.509Z,9.93
2022-12-23T08:11:01.001Z,9.80
2022-12-23T08:13:28.090Z,9.80
2022-12-23T08:15:59.107Z,9.97
2022-12-23T08:18:26.633Z,10.02
2022-12-23T08:20:57.941Z,9.97
2022-12-23T08:23:25.869Z,9.94
2022-12-23T08:26:12.235Z,9.97
2022-12-23T08:28:40.192Z,9.86
2022-12-23T08:31:09.404Z,9.85
2022-12-23T08:33:38.117Z,9.85
2022-12-23T08:36:07.213Z,9.81
2022-12-23T08:38:34.363Z,9.85
2022-12-23T08:41:13.174Z,9.68
2022-12-23T08:43:40.120Z,10.01
2022-12-23T08:46:06.679Z,9.92
2022-12-23T08:48:50.251Z,10.07
2022-12-23T08:51:19.581Z,9.95
2022-12-23T08:53:47.195Z,10.06
2022-12-23T08:56:19.200Z,10.09
2022-12-23T08:58:47.569Z,10.06
2022-12-23T09:01:16.641Z,10.16
2022-12-23T09:03:44.517Z,10.17
2022-12-23T09:06:13.968Z,9.96
2022-12-23T09:08:40.986Z,10.13
2022-12-23T09:11:12.629Z,10.12
2022-12-23T09:13:39.480Z,9.96
2022-12-23T09:16:06.677Z,10.25
2022-12-23T09:18:33.695Z,10.34
2022-12-23T09:21:01.845Z,10.42
2022-12-23T09:23:28.351Z,10.22
2022-12-23T09:25:55.785Z,10.14
2022-12-23T09:28:23.566Z,10.34
2022-12-23T09:30:50.018Z,10.19
2022-12-23T09:33:17.121Z,10.05
2022-12-23T09:35:44.090Z,10.04
2022-12-23T09:38:10.472Z,9.84
2022-12-23T09:40:38.903Z,9.68
2022-12-23T09:43:20.498Z,10.31
2022-12-23T09:46:23.952Z,9.86
2022-12-23T09:49:09.264Z,9.82
2022-12-23T09:51:35.624Z,9.67
2022-12-23T09:54:23.214Z,9.61
2022-12-23T09:57:07.769Z,9.80
2022-12-23T09:59:54.982Z,9.65
2022-12-23T10:02:30.658Z,9.74
2022-12-23T10:05:11.207Z,9.48
2022-12-23T10:07:51.401Z,9.56
2022-12-23T10:10:30.830Z,9.65
2022-12-23T10:12:59.960Z,9.68
2022-12-23T10:15:33.555Z,9.71
2022-12-23T10:18:07.487Z,9.74
2022-12-23T10:20:50.946Z,9.75
2022-12-23T10:23:27.424Z,9.30
2022-12-23T10:25:53.801Z,9.02
2022-12-23T10:28:20.355Z,9.50
2022-12-23T10:31:39.272Z,9.32
2022-12-23T10:34:07.305Z,9.67
2022-12-23T10:36:52.089Z,9.55
2022-12-23T10:39:32.816Z,9.56
2022-12-23T10:42:02.295Z,9.47
2022-12-23T10:44:40.932Z,9.35
2022-12-23T10:47:16.713Z,9.43
2022-12-23T10:50:11.269Z,9.73
2022-12-23T10:52:41.491Z,9.61
2022-12-23T10:55:34.301Z,9.83
2022-12-23T10:58:08.640Z,9.67
2022-12-23T11:00:39.928Z,9.69
2022-12-23T11:03:20.612Z,9.69
2022-12-23T11:05:50.886Z,9.73
2022-12-23T11:08:27.368Z,9.35
2022-12-23T11:10:54.925Z,9.48
2022-12-23T11:13:34.504Z,9.35
2022-12-23T11:16:20.981Z,9.72
2022-12-23T11:19:06.820Z,9.57
2022-12-23T11:21:37.306Z,9.70
2022-12-23T11:24:16.468Z,9.79
2022-12-23T11:26:44.864Z,9.68
2022-12-23T11:29:27.632Z,9.90
2022-12-23T11:31:55.576Z,10.01
2022-12-23T11:34:25.081Z,10.06
2022-12-23T11:37:01.782Z,9.63
2022-12-23T11:39:36.624Z,9.51
2022-12-23T11:42:11.312Z,9.52
2022-12-23T11:44:37.656Z,9.64
2022-12-23T11:47:22.423Z,9.43
2022-12-23T11:50:01.108Z,9.46
2022-12-23T11:52:32.590Z,9.41
2022-12-23T11:55:04.306Z,9.52
2022-12-23T11:57:44.411Z,9.50
2022-12-23T12:00:41.951Z,9.53
2022-12-23T12:03:16.032Z,9.39
2022-12-23T12:05:51.161Z,9.32
2022-12-23T12:08:27.665Z,9.15
2022-12-23T12:11:02.314Z,9.45
2022-12-23T12:13:32.564Z,9.44
2022-12-23T12:16:45.697Z,9.41
2022-12-23T12:19:24.050Z,9.28
2022-12-23T12:22:02.648Z,8.97
2022-12-23T12:24:47.757Z,9.45
2022-12-23T12:27:28.175Z,9.33
2022-12-23T12:30:08.349Z,9.46
2022-12-23T12:33:16.337Z,9.59
2022-12-23T12:35:53.845Z,9.43
2022-12-23T12:38:32.604Z,9.41
2022-12-23T12:41:14.710Z,9.68
2022-12-23T12:44:15.498Z,9.23
2022-12-23T12:46:54.132Z,9.60
2022-12-23T12:49:29.350Z,9.47
2022-12-23T12:52:19.563Z,9.31
2022-12-23T12:54:58.555Z,9.47
2022-12-23T12:57:25.630Z,9.52
2022-12-23T13:00:05.613Z,9.55
2022-12-23T13:02:41.952Z,9.58
2022-12-23T13:05:36.495Z,9.52
2022-12-23T13:08:43.746Z,9.52
2022-12-23T13:11:33.152Z,9.25
2022-12-23T13:14:06.823Z,9.44
2022-12-23T13:16:59.823Z,9.08
2022-12-23T13:19:51.788Z,9.35
2022-12-23T13:22:27.598Z,9.20
2022-12-23T13:25:03.303Z,9.28
2022-12-23T13:27:53.457Z,9.33
2022-12-23T13:30:42.510Z,9.65
2022-12-23T13:33:57.045Z,9.58
2022-12-23T13:37:04.206Z,9.46
2022-12-23T13:40:18.368Z,9.52
2022-12-23T13:42:56.698Z,9.49
2022-12-23T13:45:53.702Z,9.62
2022-12-23T13:48:43.711Z,9.44
2022-12-23T13:51:29.898Z,9.69
2022-12-23T13:54:21.986Z,9.73
2022-12-23T14:00:34.418Z,9.58
2022-12-23T14:03:00.921Z,9.78
2022-12-23T14:05:34.462Z,9.70
2022-12-23T14:08:19.208Z,9.56
2022-12-23T14:11:10.729Z,9.55
2022-12-23T14:13:52.357Z,9.70
2022-12-23T14:16:37.588Z,9.58
2022-12-23T14:19:28.955Z,9.80
2022-12-23T14:22:09.513Z,9.70
2022-12-23T14:24:51.023Z,9.79
2022-12-23T14:27:45.563Z,9.78
2022-12-23T14:30:16.957Z,9.89
2022-12-23T14:32:52.147Z,9.89
2022-12-23T14:35:27.675Z,9.83
2022-12-23T14:38:16.771Z,9.71
2022-12-23T14:40:43.216Z,9.88
2022-12-23T14:43:27.210Z,10.02
2022-12-23T14:45:55.937Z,9.68
2022-12-23T14:48:34.616Z,9.85
2022-12-23T14:51:10.158Z,9.94
2022-12-23T14:53:57.930Z,9.59
2022-12-23T14:56:47.417Z,9.69
2022-12-23T14:59:38.881Z,9.61
2022-12-23T15:02:28.994Z,9.50
2022-12-23T15:04:57.495Z,9.79
2022-12-23T15:07:38.740Z,9.69
2022-12-23T15:10:08.587Z,9.43
2022-12-23T15:12:41.485Z,9.49
2022-12-23T15:15:20.433Z,9.52
2022-12-23T15:17:47.486Z,9.71
2022-12-23T15:20:19.636Z,9.69
2022-12-23T15:22:48.553Z,9.55
2022-12-23T15:25:51.313Z,9.70
2022-12-23T15:28:27.946Z,9.75
2022-12-23T15:31:05.239Z,9.60
2022-12-23T15:34:03.930Z,9.43
2022-12-23T15:36:37.622Z,9.53
2022-12-23T15:39:09.804Z,9.48
2022-12-23T15:41:52.591Z,9.53
2022-12-23T15:44:24.150Z,9.75
2022-12-23T15:46:53.488Z,9.51
2022-12-23T15:49:28.994Z,9.43
2022-12-23T15:52:09.689Z,9.61
2022-12-23T15:55:10.586Z,9.75
2022-12-23T15:57:50.168Z,9.68
2022-12-23T16:01:19.472Z,9.65
2022-12-23T16:04:05.770Z,9.55
2022-12-23T16:06:52.598Z,9.54
2022-12-23T16:09:37.666Z,9.55
2022-12-23T16:12:16.405Z,9.61
2022-12-23T16:15:04.487Z,9.70
2022-12-23T16:17:38.050Z,9.42
2022-12-23T16:20:40.322Z,9.58
2022-12-23T16:23:10.932Z,9.52
2022-12-23T16:25:43.029Z,9.35
2022-12-23T16:28:22.950Z,9.34
2022-12-23T16:30:56.548Z,9.39
2022-12-23T16:33:49.380Z,9.31
2022-12-23T16:36:27.087Z,9.29
2022-12-23T16:39:09.184Z,9.28
2022-12-23T16:41:37.893Z,9.35
2022-12-23T16:44:15.315Z,9.42
2022-12-23T16:46:51.699Z,9.18
2022-12-23T16:49:27.905Z,9.28
2022-12-23T16:52:05.565Z,9.29
2022-12-23T16:54:43.333Z,9.40
2022-12-23T16:57:10.752Z,9.29
2022-12-23T16:59:40.887Z,9.40
2022-12-23T17:02:23.958Z,9.42
2022-12-23T17:04:51.195Z,9.49
2022-12-23T17:07:17.645Z,9.59
2022-12-23T17:09:44.053Z,9.79
2022-12-23T17:12:15.426Z,9.60
2022-12-23T17:14:44.014Z,9.47
2022-12-23T17:17:16.607Z,9.56
2022-12-23T17:19:57.573Z,9.49
2022-12-23T17:22:25.304Z,9.69
2022-12-23T17:24:51.816Z,9.62
2022-12-23T17:27:20.550Z,9.65
2022-12-23T17:29:47.056Z,9.62
2022-12-23T17:32:16.558Z,9.61
2022-12-23T17:34:43.595Z,9.42
2022-12-23T17:37:15.453Z,9.75
2022-12-23T17:39:43.576Z,9.68
2022-12-23T17:42:25.215Z,9.55
2022-12-23T17:44:52.335Z,9.59
2022-12-23T17:47:22.204Z,9.60
2022-12-23T17:49:49.341Z,9.63
2022-12-23T17:52:21.763Z,9.61
2022-12-23T17:54:50.171Z,9.77
2022-12-23T17:57:22.793Z,9.75
2022-12-23T17:59:51.120Z,9.85
2022-12-23T18:02:35.110Z,9.64
2022-12-23T18:05:02.841Z,9.61
2022-12-23T18:07:29.230Z,9.56
2022-12-23T18:09:55.601Z,9.65
2022-12-23T18:12:39.086Z,9.74
2022-12-23T18:15:14.884Z,9.54
2022-12-23T18:17:41.326Z,9.74
2022-12-23T18:20:14.532Z,9.73
2022-12-23T18:22:42.494Z,9.67
2022-12-23T18:25:23.280Z,9.82
2022-12-23T18:27:50.423Z,9.63
2022-12-23T18:30:28.295Z,9.56
2022-12-23T18:32:54.767Z,9.46
2022-12-23T18:35:38.302Z,9.57
2022-12-23T18:38:04.772Z,9.69
2022-12-23T18:40:33.219Z,9.57
2022-12-23T18:43:00.388Z,9.61
2022-12-23T18:45:41.883Z,9.68
2022-12-23T18:48:09.398Z,9.65
2022-12-23T18:50:38.581Z,9.73
2022-12-23T18:53:25.219Z,9.64
2022-12-23T18:55:53.590Z,9.63
2022-12-23T18:58:20.394Z,9.44
2022-12-23T19:00:54.992Z,9.60
2022-12-23T19:03:28.843Z,9.69
2022-12-23T19:06:06.641Z,9.50
2022-12-23T19:08:34.831Z,9.57
2022-12-23T19:11:18.405Z,9.25
2022-12-23T19:13:47.229Z,9.40
2022-12-23T19:16:16.078Z,9.58
2022-12-23T19:18:59.984Z,9.47
2022-12-23T19:21:37.777Z,9.34
2022-12-23T19:24:19.578Z,9.44
2022-12-23T19:26:46.030Z,9.59
2022-12-23T19:29:12.514Z,9.59
2022-12-23T19:31:41.027Z,9.50
2022-12-23T19:34:22.993Z,9.43
2022-12-23T19:37:12.139Z,9.65
2022-12-23T19:39:40.895Z,9.56
2022-12-23T19:42:08.087Z,9.75
2022-12-23T19:44:34.872Z,9.75
2022-12-23T19:47:24.984Z,9.80
2022-12-23T19:49:51.401Z,9.69
2022-12-23T19:52:17.851Z,9.81
2022-12-23T19:54:44.230Z,9.89
2022-12-23T19:57:19.975Z,10.03
2022-12-23T19:59:46.512Z,10.01
2022-12-23T20:02:17.002Z,10.16
2022-12-23T20:04:43.950Z,10.10
2022-12-23T20:07:10.533Z,9.99
2022-12-23T20:09:45.215Z,10.33
2022-12-23T20:12:12.707Z,9.99
2022-12-23T20:14:39.238Z,10.00
2022-12-23T20:17:05.648Z,10.19
2022-12-23T20:19:42.186Z,10.14
2022-12-23T20:22:16.209Z,10.23
2022-12-23T20:24:50.060Z,9.99
2022-12-23T20:27:20.159Z,10.00
2022-12-23T20:29:50.273Z,9.99
2022-12-23T20:32:16.684Z,9.88
2022-12-23T20:34:43.059Z,9.94
2022-12-23T20:37:09.745Z,9.98
2022-12-23T20:39:53.579Z,10.05
2022-12-23T20:42:32.315Z,9.96
2022-12-23T20:44:58.709Z,10.01
2022-12-23T20:47:34.282Z,10.05
2022-12-23T20:50:00.853Z,9.96
2022-12-23T20:52:34.052Z,10.03
2022-12-23T20:55:01.637Z,9.96
2022-12-23T20:57:28.631Z,9.90
2022-12-23T20:59:55.032Z,10.09
2022-12-23T21:02:21.561Z,10.19
2022-12-23T21:04:58.490Z,9.99
2022-12-23T21:07:26.234Z,10.20
2022-12-23T21:09:52.807Z,10.06
2022-12-23T21:12:19.210Z,10.17
2022-12-23T21:14:45.629Z,10.18
2022-12-23T21:17:20.963Z,10.04
2022-12-23T21:19:47.344Z,9.89
2022-12-23T21:22:13.725Z,10.16
2022-12-23T21:24:41.127Z,10.07
2022-12-23T21:27:07.500Z,9.96
2022-12-23T21:29:33.917Z,9.92
2022-12-23T21:32:00.515Z,9.95
2022-12-23T21:34:27.053Z,9.86
2022-12-23T21:36:53.568Z,9.95
2022-12-23T21:39:20.140Z,9.87
2022-12-23T21:41:53.827Z,9.71
2022-12-23T21:44:20.240Z,9.58
2022-12-23T21:47:02.639Z,9.80
2022-12-23T21:49:34.171Z,9.77
2022-12-23T21:52:00.552Z,9.90
2022-12-23T21:54:26.936Z,9.79
2022-12-23T21:56:53.348Z,9.70
2022-12-23T21:59:19.839Z,9.73
2022-12-23T22:01:46.319Z,9.83
2022-12-23T22:04:13.073Z,9.77
2022-12-23T22:06:45.837Z,9.71
2022-12-23T22:09:16.989Z,9.70
2022-12-23T22:11:44.056Z,9.67
2022-12-23T22:14:12.574Z,9.77
2022-12-23T22:16:39.019Z,9.94
2022-12-23T22:19:06.931Z,9.95
2022-12-23T22:21:35.587Z,9.80
2022-12-23T22:24:02.599Z,9.80
2022-12-23T22:26:31.491Z,9.84
2022-12-23T22:29:00.165Z,9.77
2022-12-23T22:31:38.379Z,9.65
2022-12-23T22:34:05.966Z,9.64
2022-12-23T22:36:32.912Z,9.69
2022-12-23T22:39:00.830Z,9.77
2022-12-23T22:41:29.289Z,9.50
2022-12-23T22:43:56.855Z,9.67
2022-12-23T22:46:24.514Z,9.63
2022-12-23T22:48:51.717Z,9.85
2022-12-23T22:51:24.703Z,9.87
2022-12-23T22:53:51.355Z,9.69
2022-12-23T22:56:19.645Z,9.75
2022-12-23T22:58:46.070Z,9.80
2022-12-23T23:01:33.460Z,10.02
2022-12-23T23:04:02.419Z,10.21
2022-12-23T23:06:28.799Z,10.01
2022-12-23T23:08:56.081Z,10.11
2022-12-23T23:11:23.871Z,9.82
2022-12-23T23:13:50.587Z,9.84
2022-12-23T23:16:17.760Z,9.78
2022-12-23T23:18:44.292Z,9.65
2022-12-23T23:21:12.845Z,9.66
2022-12-23T23:23:39.340Z,9.64
2022-12-23T23:26:08.565Z,9.87
2022-12-23T23:28:35.138Z,9.39
2022-12-23T23:31:32.018Z,9.67
2022-12-23T23:33:49.245Z,9.70
2022-12-23T23:36:15.704Z,9.58
2022-12-23T23:38:42.139Z,9.61
2022-12-23T23:41:08.577Z,9.54
2022-12-23T23:43:34.973Z,9.65
2022-12-23T23:46:01.481Z,9.71
2022-12-23T23:48:28.070Z,9.51
2022-12-23T23:51:03.901Z,9.60
2022-12-23T23:53:30.369Z,9.60
2022-12-23T23:56:07.333Z,9.52
2022-12-23T23:58:35.064Z,9.63
